Time;durP1;ratioP1;P1;durP2;ratioP2;P2;SDS_P1;SDS_P2;PMS_P1;PMS_P2;Temp;Humidity;BMP_temperature;BMP_pressure;BME280_temperature;BME280_humidity;BME280_pressure;Samples;Min_cycle;Max_cycle;Signal;HPM_P1;HPM_P2
2022/12/09 00:01:23;;;;;;;;;;;;;;;6.78;60.70;100616.19;4961988;28;124049;-68
2022/12/09 00:03:50;;;;;;;;;;;;;;;6.76;60.71;100620.66;4957049;28;124975;-70
2022/12/09 00:06:18;;;;;;;;;;;;;;;6.77;61.05;100619.72;4964954;28;120158;-70
2022/12/09 00:08:46;;;;;;;;;;;;;;;6.78;61.17;100621.47;4946829;28;118189;-69
2022/12/09 00:11:13;;;;;;;;;;;;;;;6.81;60.85;100620.50;4945517;28;123551;-69
2022/12/09 00:13:40;;;;;;;;;;;;;;;6.82;60.82;100617.81;4963010;28;124049;-69
2022/12/09 00:16:16;;;;;;;;;;;;;;;6.82;60.84;100612.56;4962416;28;120671;-69
2022/12/09 00:18:44;;;;;;;;;;;;;;;6.81;60.90;100616.06;4963922;28;119516;-69
2022/12/09 00:21:18;;;;;;;;;;;;;;;6.82;61.11;100617.81;4965706;28;123827;-69
2022/12/09 00:23:46;;;;;;;;;;;;;;;6.81;61.01;100607.34;4958003;28;124797;-69
2022/12/09 00:26:14;;;;;;;;;;;;;;;6.81;60.80;100604.69;4960725;28;119974;-69
2022/12/09 00:28:41;;;;;;;;;;;;;;;6.79;61.00;100612.63;4965620;28;117929;-69
2022/12/09 00:31:11;;;;;;;;;;;;;;;6.78;61.01;100605.69;4947358;28;122464;-69
2022/12/09 00:33:39;;;;;;;;;;;;;;;6.77;60.78;100608.34;4962878;28;124525;-69
2022/12/09 00:36:10;;;;;;;;;;;;;;;6.78;60.75;100603.03;4946735;28;119615;-69
2022/12/09 00:38:37;;;;;;;;;;;;;;;6.78;60.86;100605.69;4962877;28;119970;-69
2022/12/09 00:41:04;;;;;;;;;;;;;;;6.76;60.92;100607.50;4960431;28;124412;-69
2022/12/09 00:43:32;;;;;;;;;;;;;;;6.76;61.04;100607.50;4964017;28;124051;-69
2022/12/09 00:45:59;;;;;;;;;;;;;;;6.74;60.89;100609.31;4964692;28;118318;-69
2022/12/09 00:48:27;;;;;;;;;;;;;;;6.73;60.71;100607.59;4960832;28;119055;-69
2022/12/09 00:50:54;;;;;;;;;;;;;;;6.71;60.93;100612.03;4962534;28;124496;-70
2022/12/09 00:53:21;;;;;;;;;;;;;;;6.70;61.02;100612.94;4959449;28;122506;-70
2022/12/09 00:55:48;;;;;;;;;;;;;;;6.69;60.62;100611.25;4945032;28;118173;-70
2022/12/09 00:58:15;;;;;;;;;;;;;;;6.69;60.70;100616.50;4963753;28;118464;-69
2022/12/09 01:00:43;;;;;;;;;;;;;;;6.69;60.99;100605.97;4947676;28;123392;-70
2022/12/09 01:03:13;;;;;;;;;;;;;;;6.68;60.86;100612.13;4941444;28;124353;-69
2022/12/09 01:05:41;;;;;;;;;;;;;;;6.67;61.02;100606.91;4956666;28;119537;-70
2022/12/09 01:08:11;;;;;;;;;;;;;;;6.66;60.75;100608.69;4944920;28;118468;-69
2022/12/09 01:10:38;;;;;;;;;;;;;;;6.66;60.88;100611.31;4959904;28;123384;-69
2022/12/09 01:13:06;;;;;;;;;;;;;;;6.66;60.96;100611.31;4942886;28;124264;-69
2022/12/09 01:15:33;;;;;;;;;;;;;;;6.66;60.99;100616.59;4964539;28;120071;-69
2022/12/09 01:18:00;;;;;;;;;;;;;;;6.65;60.85;100614.88;4965549;28;119586;-69
2022/12/09 01:20:27;;;;;;;;;;;;;;;6.65;60.59;100609.63;4962884;28;124737;-69
2022/12/09 01:22:54;;;;;;;;;;;;;;;6.64;60.81;100613.16;4962234;28;124516;-69
2022/12/09 01:25:21;;;;;;;;;;;;;;;6.62;60.86;100609.72;4960948;28;121336;-69
2022/12/09 01:27:48;;;;;;;;;;;;;;;6.59;60.56;100615.06;4962942;28;119884;-69
2022/12/09 01:30:15;;;;;;;;;;;;;;;6.57;61.01;100622.16;4944712;28;123784;-69
2022/12/09 01:32:42;;;;;;;;;;;;;;;6.55;60.71;100623.97;4946052;28;124038;-69
2022/12/09 01:35:09;;;;;;;;;;;;;;;6.55;60.93;100623.97;4943599;28;119094;-69
2022/12/09 01:37:36;;;;;;;;;;;;;;;6.53;60.66;100631.06;4961300;28;119042;-69
2022/12/09 01:40:05;;;;;;;;;;;;;;;6.55;61.14;100629.22;4936917;28;124373;-69
2022/12/09 01:42:32;;;;;;;;;;;;;;;6.54;61.09;100632.78;4962652;28;124108;-69
2022/12/09 01:45:34;;;;;;;;;;;;;;;6.54;61.08;100627.53;4959917;28;119125;-69
2022/12/09 01:48:05;;;;;;;;;;;;;;;6.53;60.88;100631.91;4960833;28;118118;-69
2022/12/09 01:50:34;;;;;;;;;;;;;;;6.54;61.15;100632.78;4957639;28;124434;-70
2022/12/09 01:53:01;;;;;;;;;;;;;;;6.55;60.76;100634.50;4971903;28;124308;-69
2022/12/09 01:55:28;;;;;;;;;;;;;;;6.54;60.63;100633.63;4950239;28;120459;-70
2022/12/09 01:57:55;;;;;;;;;;;;;;;6.54;60.67;100632.78;4945520;28;116997;-69
2022/12/09 02:00:22;;;;;;;;;;;;;;;6.51;60.97;100632.88;4944301;28;123962;-69
2022/12/09 02:02:50;;;;;;;;;;;;;;;6.50;60.95;100625.88;4944691;28;124306;-69
2022/12/09 02:05:19;;;;;;;;;;;;;;;6.50;61.07;100631.13;4963643;28;120179;-69
2022/12/09 02:07:52;;;;;;;;;;;;;;;6.49;60.80;100634.69;4946545;28;120633;-69
2022/12/09 02:10:20;;;;;;;;;;;;;;;6.50;60.96;100628.50;4945666;28;123300;-69
2022/12/09 02:13:08;;;;;;;;;;;;;;;6.50;60.78;100631.13;4944783;28;123581;-69
2022/12/09 02:15:40;;;;;;;;;;;;;;;6.52;60.88;100629.34;4940712;28;120249;-69
2022/12/09 02:18:18;;;;;;;;;;;;;;;6.52;60.94;100629.34;4947179;28;120510;-69
2022/12/09 02:21:03;;;;;;;;;;;;;;;6.53;61.41;100625.78;4963797;28;124581;-69
2022/12/09 02:23:37;;;;;;;;;;;;;;;6.54;61.03;100632.78;4964132;28;123669;-69
2022/12/09 02:26:17;;;;;;;;;;;;;;;6.53;61.12;100628.41;4945444;28;120931;-69
2022/12/09 02:28:57;;;;;;;;;;;;;;;6.51;61.06;100628.47;4964070;28;118007;-69
2022/12/09 02:31:25;;;;;;;;;;;;;;;6.51;60.85;100622.34;4948846;28;124969;-69
2022/12/09 02:34:10;;;;;;;;;;;;;;;6.50;60.89;100621.50;4964140;28;123549;-69
2022/12/09 02:36:52;;;;;;;;;;;;;;;6.50;60.95;100620.63;4963638;28;120170;-69
2022/12/09 02:39:23;;;;;;;;;;;;;;;6.43;60.74;100620.81;4967076;28;118950;-69
2022/12/09 02:41:51;;;;;;;;;;;;;;;6.40;60.92;100623.56;4943749;28;123399;-69
2022/12/09 02:44:21;;;;;;;;;;;;;;;6.39;60.72;100624.47;4947123;28;123157;-69
2022/12/09 02:46:51;;;;;;;;;;;;;;;6.40;60.94;100625.31;4946050;28;118986;-69
2022/12/09 02:49:20;;;;;;;;;;;;;;;6.41;60.83;100622.63;4947419;28;118655;-69
2022/12/09 02:51:48;;;;;;;;;;;;;;;6.43;61.10;100626.06;4963751;28;123822;-69
2022/12/09 02:54:16;;;;;;;;;;;;;;;6.46;60.88;100624.25;4947672;28;123720;-70
2022/12/09 02:56:48;;;;;;;;;;;;;;;6.46;61.11;100614.63;4946345;28;118729;-68
2022/12/09 02:59:16;;;;;;;;;;;;;;;6.47;61.07;100615.47;4961492;28;118748;-69
2022/12/09 03:02:13;;;;;;;;;;;;;;;6.48;60.85;100611.91;4944743;28;123003;-69
2022/12/09 03:04:43;;;;;;;;;;;;;;;6.48;60.95;100607.53;4959765;28;124398;-69
2022/12/09 03:07:27;;;;;;;;;;;;;;;6.49;61.20;100603.13;4956286;28;120918;-69
2022/12/09 03:10:00;;;;;;;;;;;;;;;6.49;60.82;100603.13;4960150;28;119780;-69
2022/12/09 03:12:29;;;;;;;;;;;;;;;6.48;60.75;100601.38;4962517;28;124987;-69
2022/12/09 03:14:56;;;;;;;;;;;;;;;6.48;60.76;100606.66;4960861;28;124007;-69
2022/12/09 03:17:29;;;;;;;;;;;;;;;6.47;60.66;100610.22;4960874;28;119307;-69
2022/12/09 03:20:03;;;;;;;;;;;;;;;6.46;60.72;100603.22;4963346;28;119599;-68
2022/12/09 03:22:33;;;;;;;;;;;;;;;6.42;60.99;100605.97;4961269;28;124251;-70
2022/12/09 03:25:05;;;;;;;;;;;;;;;6.39;60.56;100602.56;4960753;28;124209;-69
2022/12/09 03:27:53;;;;;;;;;;;;;;;6.36;60.99;100603.50;4959563;28;120076;-69
2022/12/09 03:30:20;;;;;;;;;;;;;;;6.35;61.17;100595.69;4960761;28;118798;-69
2022/12/09 03:32:49;;;;;;;;;;;;;;;6.35;61.18;100591.28;4963846;28;123919;-69
2022/12/09 03:35:19;;;;;;;;;;;;;;;6.34;60.74;100594.81;4960188;28;124154;-69
2022/12/09 03:37:48;;;;;;;;;;;;;;;6.35;61.07;100586.00;4963419;28;119165;-69
2022/12/09 03:40:18;;;;;;;;;;;;;;;6.36;61.11;100585.09;4955083;28;118814;-69
2022/12/09 03:42:51;;;;;;;;;;;;;;;6.38;61.19;100592.94;4962294;28;124505;-69
2022/12/09 03:45:19;;;;;;;;;;;;;;;6.38;60.82;100585.91;4954994;28;124833;-69
2022/12/09 03:47:46;;;;;;;;;;;;;;;6.40;60.88;100578.84;4960169;28;119755;-69
2022/12/09 03:50:13;;;;;;;;;;;;;;;6.40;61.18;100588.47;4955100;28;118904;-69
2022/12/09 03:52:52;;;;;;;;;;;;;;;6.39;60.76;100584.16;4938563;28;123846;-69
2022/12/09 03:55:33;;;;;;;;;;;;;;;6.38;60.79;100591.16;4962903;28;124791;-70
2022/12/09 03:58:00;;;;;;;;;;;;;;;6.39;61.18;100585.00;4959189;28;120393;-69
2022/12/09 04:00:27;;;;;;;;;;;;;;;6.40;61.29;100584.09;4961331;28;119376;-69
2022/12/09 04:02:54;;;;;;;;;;;;;;;6.42;60.96;100577.03;4944625;28;123959;-69
2022/12/09 04:05:22;;;;;;;;;;;;;;;6.43;61.08;100584.00;4954032;28;125401;-69
2022/12/09 04:07:49;;;;;;;;;;;;;;;6.46;60.90;100583.06;4960109;28;119964;-69
2022/12/09 04:10:16;;;;;;;;;;;;;;;6.45;61.11;100577.84;4940141;28;118440;-69
2022/12/09 04:12:42;;;;;;;;;;;;;;;6.45;61.10;100577.84;4953525;28;123107;-69
2022/12/09 04:15:09;;;;;;;;;;;;;;;6.43;61.09;100578.72;4943395;28;124669;-69
2022/12/09 04:17:36;;;;;;;;;;;;;;;6.43;60.92;100578.72;4964058;28;119710;-68
2022/12/09 04:20:04;;;;;;;;;;;;;;;6.42;60.74;100577.03;4961644;28;118464;-69
2022/12/09 04:22:33;;;;;;;;;;;;;;;6.42;61.10;100574.41;4962278;28;123401;-69
2022/12/09 04:25:00;;;;;;;;;;;;;;;6.41;60.76;100570.03;4942052;28;124519;-69
2022/12/09 04:27:27;;;;;;;;;;;;;;;6.40;61.14;100567.44;4963215;28;119369;-69
2022/12/09 04:29:54;;;;;;;;;;;;;;;6.41;61.02;100564.75;4962609;28;118367;-69
2022/12/09 04:32:21;;;;;;;;;;;;;;;6.43;60.96;100573.47;4964174;28;124370;-69
2022/12/09 04:34:48;;;;;;;;;;;;;;;6.42;60.91;100577.03;4943178;28;124536;-67
2022/12/09 04:37:15;;;;;;;;;;;;;;;6.43;60.75;100572.63;4960279;28;119310;-67
2022/12/09 04:39:42;;;;;;;;;;;;;;;6.42;60.83;100566.50;4963731;28;119364;-70
2022/12/09 04:42:09;;;;;;;;;;;;;;;6.41;60.74;100564.75;4961407;28;123217;-70
2022/12/09 04:44:36;;;;;;;;;;;;;;;6.39;60.94;100561.31;4964166;28;124949;-70
2022/12/09 04:47:03;;;;;;;;;;;;;;;6.38;60.78;100569.25;4965569;28;119292;-70
2022/12/09 04:49:30;;;;;;;;;;;;;;;6.37;61.09;100568.41;4962838;28;120115;-70
2022/12/09 04:51:57;;;;;;;;;;;;;;;6.37;60.94;100568.41;4960708;28;124808;-70
2022/12/09 04:54:24;;;;;;;;;;;;;;;6.36;60.85;100577.19;4941655;28;125387;-70
2022/12/09 04:56:51;;;;;;;;;;;;;;;6.36;60.97;100566.69;4960031;28;119460;-67
2022/12/09 04:59:19;;;;;;;;;;;;;;;6.37;61.16;100568.41;4963144;28;119508;-67
2022/12/09 05:01:46;;;;;;;;;;;;;;;6.39;60.90;100574.47;4944778;28;124146;-67
2022/12/09 05:04:13;;;;;;;;;;;;;;;6.41;61.23;100572.66;4961765;28;123940;-67
2022/12/09 05:06:40;;;;;;;;;;;;;;;6.43;61.01;100573.47;4959900;28;119960;-67
2022/12/09 05:09:11;;;;;;;;;;;;;;;6.47;61.14;100573.38;4959354;28;118707;-67
2022/12/09 05:11:39;;;;;;;;;;;;;;;6.48;60.83;100567.19;4962404;28;124009;-67
2022/12/09 05:14:06;;;;;;;;;;;;;;;6.48;60.84;100569.81;4958668;28;124597;-67
2022/12/09 05:16:33;;;;;;;;;;;;;;;6.46;60.76;100566.38;4944169;28;119433;-67
2022/12/09 05:19:00;;;;;;;;;;;;;;;6.42;60.63;100565.63;4959280;28;120321;-67
2022/12/09 05:21:28;;;;;;;;;;;;;;;6.41;60.71;100563.91;4962916;28;124396;-67
2022/12/09 05:23:57;;;;;;;;;;;;;;;6.40;60.86;100557.81;4943390;28;124942;-67
2022/12/09 05:26:24;;;;;;;;;;;;;;;6.41;60.97;100556.88;4964496;28;119870;-67
2022/12/09 05:28:51;;;;;;;;;;;;;;;6.42;61.05;100566.50;4959415;28;118883;-68
2022/12/09 05:31:20;;;;;;;;;;;;;;;6.47;60.90;100562.84;4956733;28;124952;-66
2022/12/09 05:33:48;;;;;;;;;;;;;;;6.48;60.85;100559.28;4953843;28;124886;-67
2022/12/09 05:36:17;;;;;;;;;;;;;;;6.49;61.03;100556.63;4945087;28;120572;-67
2022/12/09 05:38:46;;;;;;;;;;;;;;;6.50;60.84;100557.47;4961773;28;119502;-67
2022/12/09 05:41:14;;;;;;;;;;;;;;;6.51;60.91;100559.22;4965594;28;124967;-67
2022/12/09 05:43:41;;;;;;;;;;;;;;;6.53;60.96;100562.66;4956900;28;124183;-68
2022/12/09 05:46:09;;;;;;;;;;;;;;;6.54;60.83;100559.13;4956205;28;119616;-68
2022/12/09 05:48:36;;;;;;;;;;;;;;;6.55;60.82;100560.81;4964449;28;119346;-68
2022/12/09 05:51:06;;;;;;;;;;;;;;;6.56;61.01;100567.81;4943606;28;123270;-68
2022/12/09 05:53:33;;;;;;;;;;;;;;;6.57;61.24;100569.53;4963714;28;124807;-68
2022/12/09 05:56:00;;;;;;;;;;;;;;;6.58;60.91;100561.59;4961723;28;118818;-68
2022/12/09 05:58:28;;;;;;;;;;;;;;;6.59;60.81;100559.81;4962959;28;118984;-67
2022/12/09 06:00:56;;;;;;;;;;;;;;;6.58;61.05;100571.25;4968108;28;124166;-68
2022/12/09 06:03:23;;;;;;;;;;;;;;;6.58;60.72;100566.00;4965882;28;127941;-67
2022/12/09 06:05:51;;;;;;;;;;;;;;;6.57;61.08;100559.88;4947308;28;119418;-68
2022/12/09 06:08:19;;;;;;;;;;;;;;;6.58;60.74;100568.63;4967649;28;119790;-68
2022/12/09 06:10:46;;;;;;;;;;;;;;;6.56;60.97;100567.81;4967670;28;124146;-68
2022/12/09 06:13:13;;;;;;;;;;;;;;;6.55;60.85;100564.31;4967876;28;125011;-68
2022/12/09 06:15:41;;;;;;;;;;;;;;;6.53;60.80;100563.50;4950029;28;120354;-67
2022/12/09 06:18:08;;;;;;;;;;;;;;;6.53;60.68;100562.66;4969533;28;118845;-68
2022/12/09 06:20:38;;;;;;;;;;;;;;;6.51;61.12;100561.84;4963764;28;124449;-68
2022/12/09 06:23:05;;;;;;;;;;;;;;;6.51;61.17;100564.47;4948647;28;125045;-68
2022/12/09 06:25:33;;;;;;;;;;;;;;;6.50;61.12;100568.00;4966229;28;120597;-68
2022/12/09 06:28:00;;;;;;;;;;;;;;;6.50;60.81;100565.38;4968042;28;120134;-68
2022/12/09 06:30:27;;;;;;;;;;;;;;;6.50;60.66;100568.00;4965675;28;124171;-68
2022/12/09 06:32:54;;;;;;;;;;;;;;;6.48;60.72;100564.56;4966956;28;124099;-68
2022/12/09 06:35:22;;;;;;;;;;;;;;;6.47;60.83;100565.50;4966765;28;119131;-68
2022/12/09 06:37:50;;;;;;;;;;;;;;;6.44;60.61;100566.44;4966516;28;118301;-67
2022/12/09 06:40:20;;;;;;;;;;;;;;;6.41;60.70;100564.75;4949588;28;123632;-68
2022/12/09 06:42:49;;;;;;;;;;;;;;;6.41;60.74;100567.41;4967276;28;124193;-67
2022/12/09 06:45:16;;;;;;;;;;;;;;;6.41;60.59;100570.03;4947961;28;120101;-67
2022/12/09 06:47:43;;;;;;;;;;;;;;;6.36;60.68;100569.31;4967225;28;119223;-67
2022/12/09 06:50:11;;;;;;;;;;;;;;;6.32;61.01;100575.56;4962036;28;123486;-68
2022/12/09 06:52:39;;;;;;;;;;;;;;;6.30;60.66;100566.03;4950725;28;123959;-68
2022/12/09 06:55:07;;;;;;;;;;;;;;;6.29;60.85;100569.56;4965350;28;119855;-68
2022/12/09 06:57:34;;;;;;;;;;;;;;;6.27;60.96;100572.22;4967017;28;119210;-67
2022/12/09 07:00:03;;;;;;;;;;;;;;;6.26;60.82;100565.25;4964081;28;124355;-68
2022/12/09 07:02:31;;;;;;;;;;;;;;;6.26;61.11;100570.53;4964002;28;123644;-67
2022/12/09 07:05:02;;;;;;;;;;;;;;;6.26;60.62;100573.16;4972135;28;120057;-68
2022/12/09 07:07:30;;;;;;;;;;;;;;;6.24;61.02;100577.59;4972398;28;119095;-68
2022/12/09 07:10:00;;;;;;;;;;;;;;;6.24;60.66;100572.34;4953364;28;122716;-67
2022/12/09 07:12:28;;;;;;;;;;;;;;;6.22;60.63;100574.16;4967099;28;124154;-66
2022/12/09 07:14:55;;;;;;;;;;;;;;;6.19;60.58;100579.50;4967263;28;120867;-67
2022/12/09 07:17:22;;;;;;;;;;;;;;;6.16;60.67;100571.69;4967706;28;119925;-68
2022/12/09 07:19:49;;;;;;;;;;;;;;;6.12;60.79;100580.59;4966375;28;124529;-67
2022/12/09 07:22:17;;;;;;;;;;;;;;;6.08;60.54;100582.47;4965556;28;124172;-68
2022/12/09 07:24:44;;;;;;;;;;;;;;;6.05;60.86;100585.19;4932015;28;118254;-68
2022/12/09 07:27:13;;;;;;;;;;;;;;;6.03;60.76;100584.38;4962351;28;119279;-67
2022/12/09 07:29:45;;;;;;;;;;;;;;;5.99;60.65;100583.63;4959181;28;122897;-68
2022/12/09 07:32:13;;;;;;;;;;;;;;;5.96;60.67;100583.69;4965144;28;123757;-68
2022/12/09 07:34:41;;;;;;;;;;;;;;;5.93;60.83;100583.75;4967815;28;120015;-67
2022/12/09 07:37:08;;;;;;;;;;;;;;;5.91;60.50;100590.81;4961749;28;118769;-68
2022/12/09 07:39:36;;;;;;;;;;;;;;;5.87;60.70;100599.72;4963051;28;124500;-68
2022/12/09 07:42:03;;;;;;;;;;;;;;;5.83;60.46;100603.34;4967824;28;124639;-68
2022/12/09 07:44:43;;;;;;;;;;;;;;;5.79;60.59;100601.72;4962685;28;118533;-67
2022/12/09 07:47:10;;;;;;;;;;;;;;;5.78;61.05;100597.34;4921922;28;118454;-67
2022/12/09 07:49:37;;;;;;;;;;;;;;;5.76;60.72;100596.53;4952625;28;124268;-68
2022/12/09 07:52:04;;;;;;;;;;;;;;;5.76;61.05;100602.66;4950201;28;124945;-67
2022/12/09 07:54:32;;;;;;;;;;;;;;;5.76;60.87;100602.66;4957723;28;118534;-68
2022/12/09 07:56:59;;;;;;;;;;;;;;;5.77;60.79;100600.91;4953296;28;118873;-67
2022/12/09 07:59:26;;;;;;;;;;;;;;;5.77;60.95;100603.53;4951291;28;124094;-68
2022/12/09 08:01:54;;;;;;;;;;;;;;;5.77;60.89;100603.53;4955792;28;124394;-68
2022/12/09 08:04:25;;;;;;;;;;;;;;;5.77;60.67;100614.03;4957532;28;120447;-67
2022/12/09 08:06:53;;;;;;;;;;;;;;;5.78;61.15;100605.22;4964558;28;119795;-68
2022/12/09 08:09:20;;;;;;;;;;;;;;;5.79;60.93;100609.59;4967533;28;125277;-67
2022/12/09 08:11:47;;;;;;;;;;;;;;;5.79;61.12;100612.22;4964578;28;123086;-67
2022/12/09 08:14:15;;;;;;;;;;;;;;;5.80;61.14;100616.56;4965243;28;120119;-67
2022/12/09 08:16:42;;;;;;;;;;;;;;;5.83;60.85;100624.38;4947127;28;119575;-68
2022/12/09 08:19:10;;;;;;;;;;;;;;;5.85;61.10;100617.28;4946485;28;124378;-68
2022/12/09 08:21:38;;;;;;;;;;;;;;;5.86;61.31;100613.78;4968174;28;123857;-68
2022/12/09 08:24:06;;;;;;;;;;;;;;;5.89;60.92;100618.91;4933264;28;118476;-68
2022/12/09 08:26:35;;;;;;;;;;;;;;;5.91;60.86;100617.09;4961676;28;118849;-68
2022/12/09 08:29:11;;;;;;;;;;;;;;;5.91;60.96;100617.09;4964349;28;124075;-67
2022/12/09 08:31:39;;;;;;;;;;;;;;;5.92;61.07;100618.00;4949648;28;123059;-67
2022/12/09 08:34:08;;;;;;;;;;;;;;;5.92;61.03;100618.84;4959998;28;119640;-68
2022/12/09 08:36:36;;;;;;;;;;;;;;;5.93;60.66;100615.28;4948313;28;119649;-69
2022/12/09 08:39:03;;;;;;;;;;;;;;;5.95;60.94;100608.28;4965958;28;125865;-69
2022/12/09 08:41:34;;;;;;;;;;;;;;;5.95;60.68;100612.63;4969709;28;124546;-69
2022/12/09 08:44:11;;;;;;;;;;;;;;;5.94;60.67;100611.78;5068315;27;96665;-70
2022/12/09 08:46:39;;;;;;;;;;;;;;;5.93;60.81;100607.41;5048211;27;107079;-69
2022/12/09 08:49:07;;;;;;;;;;;;;;;5.94;61.18;100603.88;5040073;27;124139;-70
2022/12/09 08:51:35;;;;;;;;;;;;;;;5.95;61.04;100603.03;5043902;27;123944;-70
2022/12/09 08:54:02;;;;;;;;;;;;;;;5.95;61.01;100603.03;5035818;27;107524;-70
2022/12/09 08:56:30;;;;;;;;;;;;;;;5.96;60.77;100604.72;5044790;27;107416;-68
2022/12/09 08:58:57;;;;;;;;;;;;;;;5.97;61.10;100608.22;5047577;27;124663;-68
2022/12/09 09:01:30;;;;;;;;;;;;;;;5.99;60.86;100603.75;5050111;27;124187;-68
2022/12/09 09:04:02;;;;;;;;;;;;;;;5.98;60.75;100602.06;5027957;27;107529;-69
2022/12/09 09:06:29;;;;;;;;;;;;;;;5.98;60.87;100607.31;5043429;27;106169;-69
2022/12/09 09:08:57;;;;;;;;;;;;;;;5.98;60.86;100613.44;5027941;27;124774;-68
2022/12/09 09:11:25;;;;;;;;;;;;;;;5.97;60.75;100606.47;5041032;27;124464;-68
2022/12/09 09:13:52;;;;;;;;;;;;;;;5.98;60.69;100605.53;5045778;27;108389;-68
2022/12/09 09:16:21;;;;;;;;;;;;;;;5.96;60.87;100607.34;5047559;27;106260;-68
2022/12/09 09:18:49;;;;;;;;;;;;;;;5.95;60.89;100618.78;5044218;27;123916;-68
2022/12/09 09:21:18;;;;;;;;;;;;;;;5.93;60.82;100625.81;5046857;27;123643;-69
2022/12/09 09:23:45;;;;;;;;;;;;;;;5.92;60.63;100618.84;5047216;27;107715;-69
2022/12/09 09:26:15;;;;;;;;;;;;;;;5.92;60.62;100618.84;5037129;27;107228;-68
2022/12/09 09:28:42;;;;;;;;;;;;;;;5.91;60.85;100624.13;5043712;27;124365;-69
2022/12/09 09:31:12;;;;;;;;;;;;;;;5.90;60.64;100620.66;5047073;27;125445;-68
2022/12/09 09:33:40;;;;;;;;;;;;;;;5.92;61.17;100624.09;5044237;27;107791;-68
2022/12/09 09:36:10;;;;;;;;;;;;;;;5.95;60.78;100628.41;5045353;27;107194;-68
2022/12/09 09:38:37;;;;;;;;;;;;;;;5.95;60.76;100634.56;5045468;27;124420;-68
2022/12/09 09:41:34;;;;;;;;;;;;;;;5.98;61.18;100634.47;5045145;27;124249;-68
2022/12/09 09:44:01;;;;;;;;;;;;;;;6.01;61.16;100636.16;5035462;27;107823;-68
2022/12/09 09:46:35;;;;;;;;;;;;;;;6.03;60.95;100635.19;5043499;27;107462;-68
2022/12/09 09:49:05;;;;;;;;;;;;;;;6.09;60.97;100630.66;5044709;27;124180;-68
2022/12/09 09:51:34;;;;;;;;;;;;;;;6.12;60.89;100631.44;5044153;27;123972;-67
2022/12/09 09:54:01;;;;;;;;;;;;;;;6.16;61.25;100626.91;5042302;27;107285;-68
2022/12/09 09:56:36;;;;;;;;;;;;;;;6.19;61.26;100626.84;5031196;28;107430;-67
2022/12/09 09:59:22;;;;;;;;;;;;;;;6.24;61.24;100619.69;5030878;27;123735;-67
2022/12/09 10:01:59;;;;;;;;;;;;;;;6.29;60.93;100622.16;5033276;27;123739;-66
2022/12/09 10:04:48;;;;;;;;;;;;;;;6.32;61.08;100622.91;5014673;27;106689;-68
2022/12/09 10:07:42;;;;;;;;;;;;;;;6.34;60.77;100626.38;5031790;27;107425;-68
2022/12/09 10:10:13;;;;;;;;;;;;;;;6.32;60.88;100617.66;5029592;28;124477;-67
2022/12/09 10:12:41;;;;;;;;;;;;;;;6.32;61.06;100622.91;5029394;28;124451;-68
2022/12/09 10:15:11;;;;;;;;;;;;;;;6.33;61.08;100624.66;5032649;28;107648;-68
2022/12/09 10:17:46;;;;;;;;;;;;;;;6.37;60.78;100621.03;5031867;28;107432;-67
2022/12/09 10:20:15;;;;;;;;;;;;;;;6.38;60.69;100616.59;5029812;28;124573;-67
2022/12/09 10:22:47;;;;;;;;;;;;;;;6.39;60.88;100624.47;5005042;28;123645;-67
2022/12/09 10:25:17;;;;;;;;;;;;;;;6.41;61.06;100622.63;5021738;28;106524;-67
2022/12/09 10:27:48;;;;;;;;;;;;;;;6.41;60.91;100620.00;5019783;28;106892;-67
2022/12/09 10:30:17;;;;;;;;;;;;;;;6.43;60.69;100615.56;5017918;28;125175;-67
2022/12/09 10:32:44;;;;;;;;;;;;;;;6.44;60.79;100611.16;5016972;28;124234;-67
2022/12/09 10:35:15;;;;;;;;;;;;;;;6.46;61.01;100624.25;5023205;27;106551;-67
2022/12/09 10:37:43;;;;;;;;;;;;;;;6.49;61.09;100618.91;5024247;27;106883;-67
2022/12/09 10:40:10;;;;;;;;;;;;;;;6.51;60.71;100617.09;5026772;28;124283;-67
2022/12/09 10:45:44;;;;;;;;;;;;;;;6.54;61.10;100611.75;5030830;28;107750;-67
2022/12/09 10:48:41;;;;;;;;;;;;;;;6.57;60.73;100616.88;5032052;28;107343;-67
2022/12/09 10:51:17;;;;;;;;;;;;;;;6.56;60.84;100615.19;5030937;28;125701;-67
2022/12/09 10:53:52;;;;;;;;;;;;;;;6.58;60.94;100613.34;5028273;28;124862;-68
2022/12/09 10:56:30;;;;;;;;;;;;;;;6.63;60.77;100611.44;5032377;28;107729;-67
2022/12/09 10:59:10;;;;;;;;;;;;;;;6.66;60.89;100611.31;5027737;28;107396;-67
2022/12/09 11:01:49;;;;;;;;;;;;;;;6.69;60.92;100602.50;5027052;28;124438;-68
2022/12/09 11:04:28;;;;;;;;;;;;;;;6.72;60.81;100600.59;5026935;27;124558;-67
2022/12/09 11:06:58;;;;;;;;;;;;;;;6.75;61.08;100600.50;5007024;27;107761;-68
2022/12/09 11:09:28;;;;;;;;;;;;;;;6.79;60.79;100596.84;5032222;28;107756;-68
2022/12/09 11:11:55;;;;;;;;;;;;;;;6.81;60.72;100600.28;5032114;28;124198;-68
2022/12/09 11:14:26;;;;;;;;;;;;;;;6.82;61.05;100596.75;5033562;27;122809;-68
2022/12/09 11:16:58;;;;;;;;;;;;;;;6.83;60.80;100593.19;5033485;28;108119;-67
2022/12/09 11:19:30;;;;;;;;;;;;;;;6.86;60.59;100604.56;5048159;27;106074;-67
2022/12/09 11:22:16;;;;;;;;;;;;;;;6.90;61.04;100585.13;5030017;28;124111;-67
2022/12/09 11:24:43;;;;;;;;;;;;;;;6.93;61.04;100585.88;5030376;28;124169;-68
2022/12/09 11:27:28;;;;;;;;;;;;;;;6.98;61.01;100585.69;5029007;28;107691;-67
2022/12/09 11:30:04;;;;;;;;;;;;;;;7.06;61.24;100583.66;5022510;28;107726;-68
2022/12/09 11:33:00;;;;;;;;;;;;;;;7.16;61.25;100585.06;5023806;28;124596;-67
2022/12/09 11:35:28;;;;;;;;;;;;;;;7.29;61.43;100584.63;5023121;27;123788;-67
2022/12/09 11:37:57;;;;;;;;;;;;;;;7.37;61.29;100577.31;5037873;27;107613;-68
2022/12/09 11:40:26;;;;;;;;;;;;;;;7.42;60.97;100585.91;5022296;28;107147;-67
2022/12/09 11:42:54;;;;;;;;;;;;;;;7.46;61.04;100577.00;5023589;28;125398;-67
2022/12/09 11:45:33;;;;;;;;;;;;;;;7.49;61.14;100574.22;5030513;28;124732;-66
2022/12/09 11:48:20;;;;;;;;;;;;;;;7.51;60.94;100580.28;5033338;28;108473;-68
2022/12/09 11:51:00;;;;;;;;;;;;;;;7.49;60.82;100587.41;5026658;27;107362;-67
2022/12/09 11:53:28;;;;;;;;;;;;;;;7.48;60.91;100577.78;5031081;28;124337;-67
2022/12/09 11:55:58;;;;;;;;;;;;;;;7.51;61.05;100579.44;5032117;28;124233;-67
2022/12/09 11:58:28;;;;;;;;;;;;;;;7.54;60.92;100574.06;5029732;28;109062;-67
2022/12/09 12:01:03;;;;;;;;;;;;;;;7.54;60.85;100580.19;5033549;28;107051;-67
2022/12/09 12:03:32;;;;;;;;;;;;;;;7.53;60.68;100573.19;5030746;28;124268;-68
2022/12/09 12:06:03;;;;;;;;;;;;;;;7.55;60.75;100581.94;5028463;27;123808;-67
2022/12/09 12:08:42;;;;;;;;;;;;;;;7.56;60.70;100583.63;5031109;27;107800;-68
2022/12/09 12:11:11;;;;;;;;;;;;;;;7.55;60.66;100583.69;5027467;28;106826;-68
2022/12/09 12:13:46;;;;;;;;;;;;;;;7.53;60.62;100594.28;5030062;28;124931;-68
2022/12/09 12:16:17;;;;;;;;;;;;;;;7.54;60.73;100590.75;5033444;28;124019;-67
2022/12/09 12:18:53;;;;;;;;;;;;;;;7.53;60.43;100586.38;5038016;28;107821;-68
2022/12/09 12:21:38;;;;;;;;;;;;;;;7.50;60.28;100578.59;5033721;28;107030;-68
2022/12/09 12:24:24;;;;;;;;;;;;;;;7.46;60.67;100582.25;5014005;28;123899;-68
2022/12/09 12:26:57;;;;;;;;;;;;;;;7.44;60.57;100584.09;5027747;27;123268;-67
2022/12/09 12:29:42;;;;;;;;;;;;;;;7.44;60.75;100576.19;5028596;28;108197;-67
2022/12/09 12:32:12;;;;;;;;;;;;;;;7.41;60.85;100574.50;5026340;27;106786;-67
2022/12/09 12:34:50;;;;;;;;;;;;;;;7.42;60.79;100580.63;5033187;27;123902;-67
2022/12/09 12:37:17;;;;;;;;;;;;;;;7.43;60.68;100577.09;5025459;27;124281;-68
2022/12/09 12:40:02;;;;;;;;;;;;;;;7.44;60.44;100573.56;5029487;27;108339;-67
2022/12/09 12:46:15;;;;;;;;;;;;;;;7.43;60.36;100571.81;5034457;28;107154;-68
2022/12/09 12:48:42;;;;;;;;;;;;;;;7.38;60.66;100574.63;5029030;28;125154;-68
2022/12/09 12:51:18;;;;;;;;;;;;;;;7.37;60.74;100566.78;5017561;27;107094;-68
2022/12/09 12:54:02;;;;;;;;;;;;;;;7.37;60.57;100566.78;5027517;28;109770;-68
2022/12/09 12:56:33;;;;;;;;;;;;;;;7.35;60.60;100569.47;5028136;28;123760;-68
2022/12/09 12:59:00;;;;;;;;;;;;;;;7.33;60.44;100563.41;5029115;28;124242;-68